createdAt,value
2018-04-28T00:00:26.625Z,1001.56
2018-04-28T00:01:26.646Z,1001.55
2018-04-28T00:02:26.666Z,1001.58
2018-04-28T00:03:26.690Z,1001.55
2018-04-28T00:04:26.705Z,1001.57
2018-04-28T00:05:26.725Z,1001.61
2018-04-28T00:06:26.744Z,1001.62
2018-04-28T00:07:26.764Z,1001.59
2018-04-28T00:08:26.790Z,1001.59
2018-04-28T00:09:26.804Z,1001.60
2018-04-28T00:10:26.823Z,1001.57
2018-04-28T00:11:26.844Z,1001.58
2018-04-28T00:12:26.913Z,1001.58
2018-04-28T00:13:26.882Z,1001.59
2018-04-28T00:14:26.902Z,1001.59
2018-04-28T00:15:26.932Z,1001.60
2018-04-28T00:16:26.942Z,1001.58
2018-04-28T00:17:26.962Z,1001.61
2018-04-28T00:18:26.980Z,1001.59
2018-04-28T00:19:27.000Z,1001.60
2018-04-28T00:20:27.020Z,1001.57
2018-04-28T00:21:27.040Z,1001.55
2018-04-28T00:22:27.058Z,1001.55
2018-04-28T00:23:27.088Z,1001.54
2018-04-28T00:24:27.099Z,1001.51
2018-04-28T00:25:27.119Z,1001.56
2018-04-28T00:26:27.137Z,1001.54
2018-04-28T00:27:27.157Z,1001.55
2018-04-28T00:28:27.177Z,1001.54
2018-04-28T00:29:27.196Z,1001.51
2018-04-28T00:30:27.216Z,1001.49
2018-04-28T00:31:27.236Z,1001.55
2018-04-28T00:32:27.254Z,1001.49
2018-04-28T00:33:27.275Z,1001.50
2018-04-28T00:34:27.293Z,1001.52
2018-04-28T00:35:27.313Z,1001.54
2018-04-28T00:36:27.333Z,1001.54
2018-04-28T00:37:27.355Z,1001.48
2018-04-28T00:38:27.371Z,1001.52
2018-04-28T00:39:27.391Z,1001.51
2018-04-28T00:40:27.411Z,1001.56
2018-04-28T00:41:27.430Z,1001.55
2018-04-28T00:42:27.450Z,1001.60
2018-04-28T00:43:27.471Z,1001.53
2018-04-28T00:44:27.489Z,1001.59
2018-04-28T00:45:27.608Z,1001.57
2018-04-28T00:46:27.527Z,1001.52
2018-04-28T00:47:27.547Z,1001.59
2018-04-28T00:48:27.570Z,1001.55
2018-04-28T00:49:27.586Z,1001.56
2018-04-28T00:50:27.605Z,1001.56
2018-04-28T00:51:27.624Z,1001.52
2018-04-28T00:52:27.645Z,1001.55
2018-04-28T00:53:27.666Z,1001.50
2018-04-28T00:54:27.683Z,1001.52
2018-04-28T00:55:27.703Z,1001.51
2018-04-28T00:56:27.726Z,1001.50
2018-04-28T00:57:27.743Z,1001.52
2018-04-28T00:58:27.762Z,1001.53
2018-04-28T00:59:27.781Z,1001.52
2018-04-28T01:00:27.801Z,1001.54
2018-04-28T01:01:27.823Z,1001.54
2018-04-28T01:02:27.840Z,1001.53
2018-04-28T01:03:27.863Z,1001.51
2018-04-28T01:04:27.880Z,1001.53
2018-04-28T01:05:27.899Z,1001.55
2018-04-28T01:06:27.918Z,1001.56
2018-04-28T01:07:27.939Z,1001.54
2018-04-28T01:08:27.958Z,1001.51
2018-04-28T01:09:27.982Z,1001.47
2018-04-28T01:10:27.996Z,1001.53
2018-04-28T01:11:28.020Z,1001.55
2018-04-28T01:12:28.040Z,1001.59
2018-04-28T01:13:28.056Z,1001.58
2018-04-28T01:14:28.076Z,1001.64
2018-04-28T01:15:28.094Z,1001.66
2018-04-28T01:16:28.114Z,1001.65
2018-04-28T01:17:28.135Z,1001.67
2018-04-28T01:18:28.156Z,1001.71
2018-04-28T01:19:28.174Z,1001.71
2018-04-28T01:20:28.194Z,1001.71
2018-04-28T01:21:28.214Z,1001.70
2018-04-28T01:22:28.232Z,1001.72
2018-04-28T01:23:28.253Z,1001.71
2018-04-28T01:24:28.273Z,1001.72
2018-04-28T01:25:28.292Z,1001.76
2018-04-28T01:26:28.313Z,1001.73
2018-04-28T01:27:28.333Z,1001.70
2018-04-28T01:28:28.351Z,1001.72
2018-04-28T01:29:28.371Z,1001.69
2018-04-28T01:30:28.389Z,1001.75
2018-04-28T01:31:28.411Z,1001.73
2018-04-28T01:32:28.431Z,1001.76
2018-04-28T01:33:28.451Z,1001.74
2018-04-28T01:34:28.470Z,1001.71
2018-04-28T01:35:28.490Z,1001.74
2018-04-28T01:36:28.510Z,1001.74
2018-04-28T01:37:28.530Z,1001.72
2018-04-28T01:38:28.549Z,1001.74
2018-04-28T01:39:28.571Z,1001.78
2018-04-28T01:40:28.593Z,1001.79
2018-04-28T01:41:28.611Z,1001.81
2018-04-28T01:42:28.629Z,1001.84
2018-04-28T01:43:28.649Z,1001.84
2018-04-28T01:44:28.669Z,1001.84
2018-04-28T01:45:28.690Z,1001.86
2018-04-28T01:46:28.710Z,1001.88
2018-04-28T01:47:28.728Z,1001.87
2018-04-28T01:48:28.749Z,1001.89
2018-04-28T01:49:28.769Z,1001.89
2018-04-28T01:50:28.788Z,1001.92
2018-04-28T01:51:28.808Z,1001.91
2018-04-28T01:52:28.828Z,1001.91
2018-04-28T01:53:28.849Z,1001.92
2018-04-28T01:54:28.868Z,1001.93
2018-04-28T01:55:28.892Z,1001.89
2018-04-28T01:56:28.914Z,1001.90
2018-04-28T01:57:28.928Z,1001.90
2018-04-28T01:58:28.952Z,1001.91
2018-04-28T01:59:28.968Z,1001.88
2018-04-28T02:00:28.990Z,1001.85
2018-04-28T02:01:29.008Z,1001.84
2018-04-28T02:02:29.028Z,1001.90
2018-04-28T02:03:29.048Z,1001.87
2018-04-28T02:04:29.073Z,1001.92
2018-04-28T02:05:29.091Z,1001.96
2018-04-28T02:06:29.109Z,1001.95
2018-04-28T02:07:29.134Z,1001.97
2018-04-28T02:08:29.149Z,1001.93
2018-04-28T02:09:29.168Z,1001.92
2018-04-28T02:10:29.189Z,1001.91
2018-04-28T02:11:29.209Z,1001.95
2018-04-28T02:12:29.229Z,1001.97
2018-04-28T02:13:29.249Z,1001.97
2018-04-28T02:14:29.268Z,1002.00
2018-04-28T02:15:29.289Z,1002.09
2018-04-28T02:16:29.308Z,1002.03
2018-04-28T02:17:29.329Z,1002.07
2018-04-28T02:18:29.349Z,1002.08
2018-04-28T02:19:29.369Z,1002.07
2018-04-28T02:20:29.388Z,1002.07
2018-04-28T02:21:29.410Z,1002.08
2018-04-28T02:22:29.428Z,1002.08
2018-04-28T02:23:29.449Z,1002.08
2018-04-28T02:24:29.472Z,1002.08
2018-04-28T02:25:29.490Z,1002.11
2018-04-28T02:26:29.509Z,1002.13
2018-04-28T02:27:29.530Z,1002.14
2018-04-28T02:28:29.549Z,1002.10
2018-04-28T02:29:29.571Z,1002.19
2018-04-28T02:30:29.592Z,1002.17
2018-04-28T02:31:29.612Z,1002.15
2018-04-28T02:32:29.629Z,1002.20
2018-04-28T02:33:29.650Z,1002.23
2018-04-28T02:34:29.669Z,1002.20
2018-04-28T02:35:29.689Z,1002.21
2018-04-28T02:36:29.710Z,1002.26
2018-04-28T02:37:29.729Z,1002.25
2018-04-28T02:38:29.749Z,1002.28
2018-04-28T02:39:29.768Z,1002.29
2018-04-28T02:40:29.789Z,1002.27
2018-04-28T02:41:29.809Z,1002.25
2018-04-28T02:42:29.827Z,1002.23
2018-04-28T02:43:29.856Z,1002.30
2018-04-28T02:44:29.869Z,1002.31
2018-04-28T02:45:29.889Z,1002.32
2018-04-28T02:46:29.908Z,1002.31
2018-04-28T02:47:29.928Z,1002.31
2018-04-28T02:48:29.949Z,1002.34
2018-04-28T02:49:29.969Z,1002.34
2018-04-28T02:50:30.010Z,1002.36
2018-04-28T02:51:30.008Z,1002.31
2018-04-28T02:52:30.028Z,1002.33
2018-04-28T02:53:30.050Z,1002.30
2018-04-28T02:54:30.068Z,1002.35
2018-04-28T02:55:30.088Z,1002.39
2018-04-28T02:56:30.110Z,1002.35
2018-04-28T02:57:30.128Z,1002.38
2018-04-28T02:58:30.147Z,1002.36
2018-04-28T02:59:30.173Z,1002.34
2018-04-28T03:00:30.188Z,1002.36
2018-04-28T03:01:30.211Z,1002.36
2018-04-28T03:02:30.227Z,1002.38
2018-04-28T03:03:30.247Z,1002.40
2018-04-28T03:04:30.270Z,1002.39
2018-04-28T03:05:30.287Z,1002.45
2018-04-28T03:06:30.306Z,1002.47
2018-04-28T03:07:30.326Z,1002.46
2018-04-28T03:08:30.347Z,1002.45
2018-04-28T03:09:30.367Z,1002.48
2018-04-28T03:10:30.393Z,1002.50
2018-04-28T03:11:30.406Z,1002.51
2018-04-28T03:12:30.427Z,1002.53
2018-04-28T03:13:30.446Z,1002.52
2018-04-28T03:14:30.466Z,1002.55
2018-04-28T03:15:30.485Z,1002.53
2018-04-28T03:16:30.505Z,1002.52
2018-04-28T03:17:30.525Z,1002.52
2018-04-28T03:18:30.545Z,1002.50
2018-04-28T03:19:30.566Z,1002.51
2018-04-28T03:20:30.585Z,1002.53
2018-04-28T03:21:30.604Z,1002.50
2018-04-28T03:22:30.624Z,1002.49
2018-04-28T03:23:30.647Z,1002.47
2018-04-28T03:24:30.664Z,1002.52
2018-04-28T03:25:30.684Z,1002.50
2018-04-28T03:26:30.704Z,1002.52
2018-04-28T03:27:30.724Z,1002.50
2018-04-28T03:28:30.745Z,1002.51
2018-04-28T03:29:30.763Z,1002.49
2018-04-28T03:30:30.783Z,1002.51
2018-04-28T03:31:30.803Z,1002.51
2018-04-28T03:32:30.823Z,1002.47
2018-04-28T03:33:30.843Z,1002.49
2018-04-28T03:34:30.862Z,1002.47
2018-04-28T03:35:30.883Z,1002.47
2018-04-28T03:36:30.909Z,1002.50
2018-04-28T03:37:30.922Z,1002.49
2018-04-28T03:38:30.941Z,1002.53
2018-04-28T03:39:30.964Z,1002.47
2018-04-28T03:40:30.981Z,1002.51
2018-04-28T03:41:31.004Z,1002.49
2018-04-28T03:42:31.021Z,1002.49
2018-04-28T03:43:31.041Z,1002.51
2018-04-28T03:44:31.061Z,1002.47
2018-04-28T03:45:31.081Z,1002.48
2018-04-28T03:46:31.100Z,1002.52
2018-04-28T03:47:31.121Z,1002.50
2018-04-28T03:48:31.140Z,1002.54
2018-04-28T03:49:31.161Z,1002.55
2018-04-28T03:50:31.183Z,1002.54
2018-04-28T03:51:31.199Z,1002.52
2018-04-28T03:52:31.220Z,1002.52
2018-04-28T03:53:31.272Z,1002.51
2018-04-28T03:54:31.258Z,1002.51
2018-04-28T03:55:31.279Z,1002.46
2018-04-28T03:56:31.298Z,1002.52
2018-04-28T03:57:31.320Z,1002.52
2018-04-28T03:58:31.338Z,1002.50
2018-04-28T03:59:31.357Z,1002.48
2018-04-28T04:00:31.378Z,1002.48
2018-04-28T04:01:31.398Z,1002.49
2018-04-28T04:02:31.416Z,1002.53
2018-04-28T04:03:31.441Z,1002.52
2018-04-28T04:04:31.456Z,1002.54
2018-04-28T04:05:31.477Z,1002.53
2018-04-28T04:06:31.496Z,1002.52
2018-04-28T04:07:31.516Z,1002.52
2018-04-28T04:08:31.536Z,1002.55
2018-04-28T04:09:31.556Z,1002.56
2018-04-28T04:10:31.574Z,1002.59
2018-04-28T04:11:31.596Z,1002.56
2018-04-28T04:12:31.615Z,1002.57
2018-04-28T04:13:31.636Z,1002.58
2018-04-28T04:14:31.655Z,1002.53
2018-04-28T04:15:31.675Z,1002.55
2018-04-28T04:16:31.696Z,1002.60
2018-04-28T04:17:31.715Z,1002.58
2018-04-28T04:18:31.734Z,1002.60
2018-04-28T04:19:31.754Z,1002.58
2018-04-28T04:20:31.774Z,1002.61
2018-04-28T04:21:31.795Z,1002.60
2018-04-28T04:22:31.815Z,1002.60
2018-04-28T04:23:31.833Z,1002.61
2018-04-28T04:24:31.854Z,1002.66
2018-04-28T04:25:31.875Z,1002.64
2018-04-28T04:26:31.961Z,1002.69
2018-04-28T04:27:31.913Z,1002.74
2018-04-28T04:28:31.935Z,1002.76
2018-04-28T04:29:31.954Z,1002.72
2018-04-28T04:30:31.973Z,1002.77
2018-04-28T04:31:31.992Z,1002.79
2018-04-28T04:32:32.014Z,1002.78
2018-04-28T04:33:32.032Z,1002.80
2018-04-28T04:34:32.053Z,1002.87
2018-04-28T04:35:32.072Z,1002.83
2018-04-28T04:36:32.093Z,1002.86
2018-04-28T04:37:32.113Z,1002.83
2018-04-28T04:38:32.132Z,1002.81
2018-04-28T04:39:32.153Z,1002.87
2018-04-28T04:40:32.172Z,1002.87
2018-04-28T04:41:32.197Z,1002.92
2018-04-28T04:42:32.213Z,1002.88
2018-04-28T04:43:32.233Z,1002.90
2018-04-28T04:44:32.254Z,1002.93
2018-04-28T04:45:32.277Z,1002.95
2018-04-28T04:46:32.293Z,1002.99
2018-04-28T04:47:32.313Z,1002.95
2018-04-28T04:48:32.333Z,1003.02
2018-04-28T04:49:32.395Z,1003.02
2018-04-28T04:50:32.373Z,1003.06
2018-04-28T04:51:32.392Z,1003.03
2018-04-28T04:52:32.413Z,1003.07
2018-04-28T04:53:32.434Z,1003.06
2018-04-28T04:54:32.454Z,1003.07
2018-04-28T04:55:32.473Z,1003.04
2018-04-28T04:56:32.494Z,1003.06
2018-04-28T04:57:32.515Z,1003.09
2018-04-28T04:58:32.534Z,1003.06
2018-04-28T04:59:32.554Z,1003.09
2018-04-28T05:00:32.578Z,1003.07
2018-04-28T05:01:32.595Z,1003.10
2018-04-28T05:02:32.615Z,1003.15
2018-04-28T05:03:32.635Z,1003.13
2018-04-28T05:04:32.656Z,1003.14
2018-04-28T05:05:32.676Z,1003.17
2018-04-28T05:06:32.695Z,1003.13
2018-04-28T05:07:32.716Z,1003.16
2018-04-28T05:08:32.797Z,1003.18
2018-04-28T05:09:32.761Z,1003.18
2018-04-28T05:10:32.776Z,1003.22
2018-04-28T05:11:32.796Z,1003.20
2018-04-28T05:12:32.817Z,1003.23
2018-04-28T05:13:32.838Z,1003.26
2018-04-28T05:14:32.857Z,1003.25
2018-04-28T05:15:32.878Z,1003.28
2018-04-28T05:16:32.898Z,1003.28
2018-04-28T05:17:32.919Z,1003.28
2018-04-28T05:18:32.941Z,1003.32
2018-04-28T05:19:32.959Z,1003.33
2018-04-28T05:20:32.980Z,1003.35
2018-04-28T05:21:33.001Z,1003.36
2018-04-28T05:22:33.021Z,1003.39
2018-04-28T05:23:33.041Z,1003.42
2018-04-28T05:24:33.062Z,1003.40
2018-04-28T05:25:33.082Z,1003.45
2018-04-28T05:26:33.102Z,1003.45
2018-04-28T05:27:33.123Z,1003.46
2018-04-28T05:28:33.143Z,1003.49
2018-04-28T05:29:33.167Z,1003.52
2018-04-28T05:30:33.186Z,1003.52
2018-04-28T05:31:33.205Z,1003.52
2018-04-28T05:32:33.228Z,1003.54
2018-04-28T05:33:33.246Z,1003.58
2018-04-28T05:34:33.267Z,1003.51
2018-04-28T05:35:33.287Z,1003.58
2018-04-28T05:36:33.309Z,1003.57
2018-04-28T05:37:33.331Z,1003.61
2018-04-28T05:38:33.353Z,1003.62
2018-04-28T05:39:33.373Z,1003.63
2018-04-28T05:40:33.394Z,1003.61
2018-04-28T05:41:33.413Z,1003.64
2018-04-28T05:42:33.434Z,1003.65
2018-04-28T05:43:33.455Z,1003.68
2018-04-28T05:44:33.475Z,1003.69
2018-04-28T05:45:33.497Z,1003.71
2018-04-28T05:46:33.519Z,1003.71
2018-04-28T05:47:33.543Z,1003.71
2018-04-28T05:48:33.561Z,1003.71
2018-04-28T05:49:33.586Z,1003.71
2018-04-28T05:50:33.603Z,1003.75
2018-04-28T05:51:33.624Z,1003.77
2018-04-28T05:52:33.646Z,1003.76
2018-04-28T05:53:33.668Z,1003.76
2018-04-28T05:54:33.688Z,1003.73
2018-04-28T05:55:33.710Z,1003.74
2018-04-28T05:56:33.732Z,1003.75
2018-04-28T05:57:33.753Z,1003.79
2018-04-28T05:58:33.774Z,1003.80
2018-04-28T05:59:33.796Z,1003.81
2018-04-28T06:00:33.818Z,1003.82
2018-04-28T06:01:33.840Z,1003.85
2018-04-28T06:02:33.862Z,1003.87
2018-04-28T06:03:33.882Z,1003.90
2018-04-28T06:04:33.904Z,1003.89
2018-04-28T06:05:33.926Z,1003.90
2018-04-28T06:06:33.947Z,1003.92
2018-04-28T06:07:33.968Z,1003.93
2018-04-28T06:08:33.990Z,1003.92
2018-04-28T06:09:34.013Z,1003.91
2018-04-28T06:10:34.033Z,1003.94
2018-04-28T06:11:34.055Z,1003.98
2018-04-28T06:12:34.077Z,1003.97
2018-04-28T06:13:34.099Z,1004.01
2018-04-28T06:14:34.119Z,1004.04
2018-04-28T06:15:34.141Z,1004.04
2018-04-28T06:16:34.163Z,1004.01
2018-04-28T06:17:34.185Z,1004.05
2018-04-28T06:18:34.206Z,1003.96
2018-04-28T06:19:34.230Z,1004.02
2018-04-28T06:20:34.250Z,1004.03
2018-04-28T06:21:34.272Z,1004.04
2018-04-28T06:22:34.295Z,1004.05
2018-04-28T06:23:34.315Z,1004.05
2018-04-28T06:24:34.337Z,1004.08
2018-04-28T06:25:34.357Z,1004.10
2018-04-28T06:26:34.380Z,1004.06
2018-04-28T06:27:34.401Z,1004.14
2018-04-28T06:28:34.423Z,1004.11
2018-04-28T06:29:34.445Z,1004.10
2018-04-28T06:30:34.465Z,1004.13
2018-04-28T06:31:34.488Z,1004.12
2018-04-28T06:32:34.510Z,1004.11
2018-04-28T06:33:34.536Z,1004.12
2018-04-28T06:34:34.557Z,1004.14
2018-04-28T06:35:34.576Z,1004.15
2018-04-28T06:36:34.600Z,1004.15
2018-04-28T06:37:34.620Z,1004.19
2018-04-28T06:38:34.642Z,1004.20
2018-04-28T06:39:34.666Z,1004.18
2018-04-28T06:40:34.684Z,1004.21
2018-04-28T06:41:34.706Z,1004.22
2018-04-28T06:42:34.727Z,1004.26
2018-04-28T06:43:34.749Z,1004.29
2018-04-28T06:44:34.773Z,1004.22
2018-04-28T06:45:34.794Z,1004.30
2018-04-28T06:46:34.814Z,1004.27
2018-04-28T06:47:34.838Z,1004.29
2018-04-28T06:48:34.858Z,1004.30
2018-04-28T06:49:34.881Z,1004.29
2018-04-28T06:50:34.905Z,1004.30
2018-04-28T06:51:34.927Z,1004.31
2018-04-28T06:52:34.949Z,1004.26
2018-04-28T06:53:34.970Z,1004.33
2018-04-28T06:54:34.998Z,1004.28
2018-04-28T06:55:35.013Z,1004.30
2018-04-28T06:56:35.040Z,1004.27
2018-04-28T06:57:35.060Z,1004.31
2018-04-28T06:58:35.164Z,1004.34
2018-04-28T06:59:35.101Z,1004.39
2018-04-28T07:00:35.125Z,1004.34
2018-04-28T07:01:35.147Z,1004.37
2018-04-28T07:02:35.168Z,1004.37
2018-04-28T07:03:35.191Z,1004.39
2018-04-28T07:04:35.269Z,1004.41
2018-04-28T07:05:35.235Z,1004.40
2018-04-28T07:06:35.257Z,1004.42
2018-04-28T07:07:35.280Z,1004.38
2018-04-28T07:08:35.305Z,1004.43
2018-04-28T07:09:35.325Z,1004.44
2018-04-28T07:10:35.346Z,1004.42
2018-04-28T07:11:35.368Z,1004.42
2018-04-28T07:12:35.392Z,1004.44
2018-04-28T07:13:35.414Z,1004.42
2018-04-28T07:14:35.434Z,1004.41
2018-04-28T07:15:35.458Z,1004.45
2018-04-28T07:16:35.480Z,1004.44
2018-04-28T07:17:35.503Z,1004.48
2018-04-28T07:18:35.525Z,1004.45
2018-04-28T07:19:35.548Z,1004.46
2018-04-28T07:20:35.570Z,1004.50
2018-04-28T07:21:35.593Z,1004.47
2018-04-28T07:22:35.615Z,1004.53
2018-04-28T07:23:35.638Z,1004.49
2018-04-28T07:24:35.660Z,1004.51
2018-04-28T07:25:35.683Z,1004.56
2018-04-28T07:26:35.706Z,1004.51
2018-04-28T07:27:35.727Z,1004.57
2018-04-28T07:28:35.753Z,1004.54
2018-04-28T07:29:35.773Z,1004.56
2018-04-28T07:30:35.795Z,1004.58
2018-04-28T07:31:35.819Z,1004.56
2018-04-28T07:32:35.841Z,1004.63
2018-04-28T07:33:35.864Z,1004.63
2018-04-28T07:34:35.886Z,1004.65
2018-04-28T07:35:35.909Z,1004.67
2018-04-28T07:36:35.932Z,1004.71
2018-04-28T07:37:35.957Z,1004.75
2018-04-28T07:38:35.977Z,1004.77
2018-04-28T07:39:36.002Z,1004.72
2018-04-28T07:40:36.024Z,1004.71
2018-04-28T07:41:36.047Z,1004.66
2018-04-28T07:42:36.069Z,1004.64
2018-04-28T07:43:36.093Z,1004.60
2018-04-28T07:44:36.115Z,1004.65
2018-04-28T07:45:36.139Z,1004.67
2018-04-28T07:46:36.161Z,1004.64
2018-04-28T07:47:36.268Z,1004.67
2018-04-28T07:48:36.208Z,1004.63
2018-04-28T07:49:36.231Z,1004.61
2018-04-28T07:50:36.254Z,1004.62
2018-04-28T07:51:36.277Z,1004.61
2018-04-28T07:52:36.300Z,1004.66
2018-04-28T07:53:36.325Z,1004.68
2018-04-28T07:54:36.347Z,1004.73
2018-04-28T07:55:36.371Z,1004.69
2018-04-28T07:56:36.394Z,1004.67
2018-04-28T07:57:36.419Z,1004.68
2018-04-28T07:58:36.445Z,1004.67
2018-04-28T07:59:36.464Z,1004.73
2018-04-28T08:00:36.489Z,1004.74
2018-04-28T08:01:36.513Z,1004.74
2018-04-28T08:02:36.536Z,1004.70
2018-04-28T08:03:36.559Z,1004.71
2018-04-28T08:04:36.583Z,1004.71
2018-04-28T08:05:36.607Z,1004.74
2018-04-28T08:06:36.630Z,1004.73
2018-04-28T08:07:36.653Z,1004.71
2018-04-28T08:08:36.678Z,1004.78
2018-04-28T08:09:36.701Z,1004.84
2018-04-28T08:10:36.727Z,1004.82
2018-04-28T08:11:36.747Z,1004.79
2018-04-28T08:12:36.805Z,1004.78
2018-04-28T08:13:36.796Z,1004.80
2018-04-28T08:14:36.817Z,1004.82
2018-04-28T08:15:36.842Z,1004.77
2018-04-28T08:16:36.866Z,1004.81
2018-04-28T08:17:36.890Z,1004.78
2018-04-28T08:18:36.912Z,1004.78
2018-04-28T08:19:36.936Z,1004.81
2018-04-28T08:20:36.986Z,1004.80
2018-04-28T08:21:36.983Z,1004.84
2018-04-28T08:22:37.008Z,1004.88
2018-04-28T08:23:37.030Z,1004.84
2018-04-28T08:24:37.053Z,1004.85
2018-04-28T08:25:37.077Z,1004.90
2018-04-28T08:26:37.147Z,1004.90
2018-04-28T08:27:37.123Z,1004.89
2018-04-28T08:28:37.147Z,1004.91
2018-04-28T08:29:37.169Z,1004.91
2018-04-28T08:30:37.192Z,1004.92
2018-04-28T08:31:37.216Z,1004.89
2018-04-28T08:32:37.239Z,1004.97
2018-04-28T08:33:37.263Z,1004.98
2018-04-28T08:34:37.293Z,1004.91
2018-04-28T08:35:37.308Z,1004.96
2018-04-28T08:36:37.335Z,1004.98
2018-04-28T08:37:37.355Z,1005.00
2018-04-28T08:38:37.376Z,1004.98
2018-04-28T08:39:37.401Z,1004.98
2018-04-28T08:40:37.427Z,1005.04
2018-04-28T08:41:37.447Z,1004.99
2018-04-28T08:42:37.469Z,1005.07
2018-04-28T08:43:37.492Z,1005.02
2018-04-28T08:44:37.523Z,1005.05
2018-04-28T08:45:37.627Z,1005.10
2018-04-28T08:46:37.561Z,1005.06
2018-04-28T08:47:37.585Z,1005.09
2018-04-28T08:48:37.606Z,1005.07
2018-04-28T08:49:37.630Z,1005.10
2018-04-28T08:50:37.655Z,1005.05
2018-04-28T08:51:37.677Z,1005.10
2018-04-28T08:52:37.699Z,1005.14
2018-04-28T08:53:37.722Z,1005.13
2018-04-28T08:54:37.745Z,1005.10
2018-04-28T08:55:37.767Z,1005.14
2018-04-28T08:56:37.822Z,1005.13
2018-04-28T08:57:37.813Z,1005.09
2018-04-28T08:58:37.836Z,1005.14
2018-04-28T08:59:37.858Z,1005.15
2018-04-28T09:00:37.883Z,1005.09
2018-04-28T09:01:37.905Z,1005.13
2018-04-28T09:02:37.929Z,1005.18
2018-04-28T09:03:38.026Z,1005.14
2018-04-28T09:04:37.976Z,1005.06
2018-04-28T09:05:38.000Z,1005.09
2018-04-28T09:06:38.021Z,1005.12
2018-04-28T09:07:38.045Z,1005.12
2018-04-28T09:08:38.072Z,1005.15
2018-04-28T09:09:38.092Z,1005.13
2018-04-28T09:10:38.115Z,1005.17
2018-04-28T09:11:38.140Z,1005.20
2018-04-28T09:12:38.162Z,1005.15
2018-04-28T09:13:38.185Z,1005.19
2018-04-28T09:14:38.209Z,1005.17
2018-04-28T09:15:38.233Z,1005.14
2018-04-28T09:16:38.257Z,1005.13
2018-04-28T09:17:38.280Z,1005.13
2018-04-28T09:18:38.303Z,1005.18
2018-04-28T09:19:38.420Z,1005.09
2018-04-28T09:20:38.351Z,1005.14
2018-04-28T09:21:38.375Z,1005.15
2018-04-28T09:22:38.400Z,1005.16
2018-04-28T09:23:38.423Z,1005.13
2018-04-28T09:24:38.448Z,1005.21
2018-04-28T09:25:38.471Z,1005.14
2018-04-28T09:26:38.495Z,1005.11
2018-04-28T09:27:38.594Z,1005.26
2018-04-28T09:28:38.544Z,1005.26
2018-04-28T09:29:38.569Z,1005.18
2018-04-28T09:30:38.591Z,1005.17
2018-04-28T09:31:38.616Z,1005.19
2018-04-28T09:32:38.640Z,1005.15
2018-04-28T09:33:38.665Z,1005.15
2018-04-28T09:34:38.687Z,1005.17
2018-04-28T09:35:38.712Z,1005.17
2018-04-28T09:36:38.735Z,1005.20
2018-04-28T09:37:38.764Z,1005.18
2018-04-28T09:38:38.784Z,1005.19
2018-04-28T09:39:38.809Z,1005.20
2018-04-28T09:40:38.836Z,1005.19
2018-04-28T09:41:38.857Z,1005.23
2018-04-28T09:42:38.881Z,1005.23
2018-04-28T09:43:38.904Z,1005.24
2018-04-28T09:44:38.931Z,1005.26
2018-04-28T09:45:38.955Z,1005.25
2018-04-28T09:46:38.978Z,1005.23
2018-04-28T09:47:39.003Z,1005.32
2018-04-28T09:48:39.031Z,1005.26
2018-04-28T09:49:39.051Z,1005.24
2018-04-28T09:50:39.075Z,1005.24
2018-04-28T09:51:39.101Z,1005.25
2018-04-28T09:52:39.125Z,1005.24
2018-04-28T09:53:39.150Z,1005.27
2018-04-28T09:54:39.173Z,1005.25
2018-04-28T09:55:39.202Z,1005.26
2018-04-28T09:56:39.224Z,1005.27
2018-04-28T09:57:39.245Z,1005.25
2018-04-28T09:58:39.271Z,1005.27
2018-04-28T09:59:39.295Z,1005.24
2018-04-28T10:00:39.320Z,1005.30
2018-04-28T10:01:39.344Z,1005.26
2018-04-28T10:02:39.368Z,1005.27
2018-04-28T10:03:39.392Z,1005.31
2018-04-28T10:04:39.417Z,1005.27
2018-04-28T10:05:39.442Z,1005.33
2018-04-28T10:06:39.463Z,1005.32
2018-04-28T10:07:39.489Z,1005.29
2018-04-28T10:08:39.514Z,1005.33
2018-04-28T10:09:39.538Z,1005.33
2018-04-28T10:10:39.561Z,1005.31
2018-04-28T10:11:39.586Z,1005.27
2018-04-28T10:12:39.613Z,1005.31
2018-04-28T10:13:39.634Z,1005.29
2018-04-28T10:14:39.657Z,1005.35
2018-04-28T10:15:39.685Z,1005.30
2018-04-28T10:16:39.706Z,1005.26
2018-04-28T10:17:39.732Z,1005.29
2018-04-28T10:18:39.754Z,1005.28
2018-04-28T10:19:39.776Z,1005.30
2018-04-28T10:20:39.802Z,1005.29
2018-04-28T10:21:39.826Z,1005.27
2018-04-28T10:22:39.851Z,1005.29
2018-04-28T10:23:39.875Z,1005.31
2018-04-28T10:24:39.899Z,1005.31
2018-04-28T10:25:39.922Z,1005.27
2018-04-28T10:26:39.946Z,1005.28
2018-04-28T10:27:39.972Z,1005.30
2018-04-28T10:28:39.995Z,1005.35
2018-04-28T10:29:40.019Z,1005.35
2018-04-28T10:30:40.042Z,1005.40
2018-04-28T10:31:40.066Z,1005.33
2018-04-28T10:32:40.090Z,1005.34
2018-04-28T10:33:40.116Z,1005.33
2018-04-28T10:34:40.138Z,1005.29
2018-04-28T10:35:40.165Z,1005.32
2018-04-28T10:36:40.189Z,1005.28
2018-04-28T10:37:40.215Z,1005.35
2018-04-28T10:38:40.235Z,1005.35
2018-04-28T10:39:40.260Z,1005.29
2018-04-28T10:40:40.284Z,1005.28
2018-04-28T10:41:40.311Z,1005.30
2018-04-28T10:42:40.332Z,1005.33
2018-04-28T10:43:40.355Z,1005.30
2018-04-28T10:44:40.381Z,1005.30
2018-04-28T10:45:40.405Z,1005.32
2018-04-28T10:46:40.428Z,1005.37
2018-04-28T10:47:40.453Z,1005.32
2018-04-28T10:48:40.477Z,1005.33
2018-04-28T10:49:40.502Z,1005.36
2018-04-28T10:50:40.528Z,1005.33
2018-04-28T10:51:40.549Z,1005.35
2018-04-28T10:52:40.574Z,1005.37
2018-04-28T10:53:40.676Z,1005.34
2018-04-28T10:54:40.621Z,1005.35
2018-04-28T10:55:40.645Z,1005.40
2018-04-28T10:56:40.669Z,1005.35
2018-04-28T10:57:40.701Z,1005.35
2018-04-28T10:58:40.717Z,1005.32
2018-04-28T10:59:40.741Z,1005.33
2018-04-28T11:00:40.767Z,1005.30
2018-04-28T11:01:40.789Z,1005.36
2018-04-28T11:02:40.814Z,1005.40
2018-04-28T11:03:40.838Z,1005.33
2018-04-28T11:04:40.863Z,1005.38
2018-04-28T11:05:40.886Z,1005.36
2018-04-28T11:06:40.910Z,1005.39
2018-04-28T11:07:40.934Z,1005.35
2018-04-28T11:08:40.960Z,1005.37
2018-04-28T11:09:40.984Z,1005.41
2018-04-28T11:10:41.006Z,1005.39
2018-04-28T11:11:41.032Z,1005.38
2018-04-28T11:12:41.056Z,1005.43
2018-04-28T11:13:41.081Z,1005.45
2018-04-28T11:14:41.104Z,1005.43
2018-04-28T11:15:41.129Z,1005.37
2018-04-28T11:16:41.153Z,1005.38
2018-04-28T11:17:41.178Z,1005.43
2018-04-28T11:18:41.203Z,1005.41
2018-04-28T11:19:41.255Z,1005.45
2018-04-28T11:20:41.251Z,1005.49
2018-04-28T11:21:41.276Z,1005.45
2018-04-28T11:22:41.300Z,1005.46
2018-04-28T11:23:41.325Z,1005.49
2018-04-28T11:24:41.350Z,1005.52
2018-04-28T11:25:41.488Z,1005.55
2018-04-28T11:26:41.398Z,1005.51
2018-04-28T11:27:41.423Z,1005.47
2018-04-28T11:28:41.448Z,1005.49
2018-04-28T11:29:41.471Z,1005.54
2018-04-28T11:30:41.501Z,1005.54
2018-04-28T11:31:41.521Z,1005.57
2018-04-28T11:32:41.545Z,1005.54
2018-04-28T11:33:41.570Z,1005.55
2018-04-28T11:34:41.593Z,1005.55
2018-04-28T11:35:41.618Z,1005.57
2018-04-28T11:36:41.646Z,1005.55
2018-04-28T11:37:41.669Z,1005.55
2018-04-28T11:38:41.691Z,1005.52
2018-04-28T11:39:41.715Z,1005.52
2018-04-28T11:40:41.740Z,1005.55
2018-04-28T11:41:41.764Z,1005.52
2018-04-28T11:42:41.788Z,1005.56
2018-04-28T11:43:41.885Z,1005.56
2018-04-28T11:44:41.837Z,1005.59
2018-04-28T11:45:41.861Z,1005.55
2018-04-28T11:46:41.885Z,1005.52
2018-04-28T11:47:41.909Z,1005.58
2018-04-28T11:48:41.934Z,1005.53
2018-04-28T11:49:41.958Z,1005.57
2018-04-28T11:50:41.982Z,1005.56
2018-04-28T11:51:42.007Z,1005.54
2018-04-28T11:52:42.031Z,1005.52
2018-04-28T11:53:42.058Z,1005.54
2018-04-28T11:54:42.079Z,1005.52
2018-04-28T11:55:42.104Z,1005.50
2018-04-28T11:56:42.129Z,1005.47
2018-04-28T11:57:42.156Z,1005.46
2018-04-28T11:58:42.178Z,1005.45
2018-04-28T11:59:42.203Z,1005.46
2018-04-28T12:00:42.227Z,1005.45
2018-04-28T12:01:42.252Z,1005.48
2018-04-28T12:02:42.301Z,1005.47
2018-04-28T12:03:42.304Z,1005.49
2018-04-28T12:04:42.325Z,1005.52
2018-04-28T12:05:42.418Z,1005.49